Time;durP1;ratioP1;P1;durP2;ratioP2;P2;SDS_P1;SDS_P2;PMS_P1;PMS_P2;Temp;Humidity;BMP_temperature;BMP_pressure;BME280_temperature;BME280_humidity;BME280_pressure;Samples;Min_cycle;Max_cycle;Signal;HPM_P1;HPM_P2
2022/08/23 00:01:49;;;;;;;1999.90;999.90;;;;;;;17.73;56.89;95337.44;4999246;28;19967;-73
2022/08/23 00:04:21;;;;;;;1999.90;999.90;;;;;;;17.64;56.86;95324.88;5009840;28;20078;-72
2022/08/23 00:06:48;;;;;;;1999.90;999.90;;;;;;;17.65;57.04;95325.66;4996811;28;20022;-73
2022/08/23 00:09:14;;;;;;;1999.90;999.90;;;;;;;17.45;57.24;95291.69;4995054;28;20029;-72
2022/08/23 00:11:43;;;;;;;1999.90;999.90;;;;;;;17.37;57.48;95288.84;5009192;28;20026;-72
2022/08/23 00:14:14;;;;;;;1999.90;999.90;;;;;;;17.66;57.44;95338.03;5007886;28;20057;-71
2022/08/23 00:16:40;;;;;;;1999.90;999.90;;;;;;;17.64;57.62;95330.28;5008190;28;20053;-72
2022/08/23 00:19:07;;;;;;;1999.90;999.90;;;;;;;17.62;57.85;95337.91;5008490;28;20026;-72
2022/08/23 00:21:35;;;;;;;1999.90;999.90;;;;;;;17.59;58.26;95337.81;4991038;28;20025;-71
2022/08/23 00:24:01;;;;;;;1999.90;999.90;;;;;;;17.44;57.82;95308.97;5008625;28;20210;-72
2022/08/23 00:26:26;;;;;;;1999.90;999.90;;;;;;;17.58;58.22;95322.81;4991862;28;20567;-72
2022/08/23 00:28:52;;;;;;;1999.90;999.90;;;;;;;17.54;57.89;95324.59;4994188;28;20108;-73
2022/08/23 00:31:18;;;;;;;1999.90;999.90;;;;;;;17.68;57.93;95333.06;5010383;28;20116;-73
2022/08/23 00:33:44;;;;;;;1999.90;999.90;;;;;;;17.43;58.02;95302.81;5012219;28;20032;-72
2022/08/23 00:36:10;;;;;;;1999.90;999.90;;;;;;;17.51;58.24;95318.03;4995249;28;20101;-72
2022/08/23 00:38:35;;;;;;;1999.90;999.90;;;;;;;17.58;58.08;95328.97;4995820;28;20022;-72
2022/08/23 00:41:02;;;;;;;1999.90;999.90;;;;;;;17.57;58.18;95330.09;5010963;28;20025;-72
2022/08/23 00:49:39;;;;;;;1999.90;999.90;;;;;;;17.34;58.69;95321.00;5013183;28;20095;-72
2022/08/23 00:52:12;;;;;;;1999.90;999.90;;;;;;;17.12;58.73;95301.59;4993268;28;20418;-71
2022/08/23 00:54:40;;;;;;;1999.90;999.90;;;;;;;17.34;58.79;95321.00;4991165;28;20026;-72
2022/08/23 00:57:09;;;;;;;1999.90;999.90;;;;;;;17.20;58.67;95304.47;4993686;28;20134;-71
2022/08/23 00:59:35;;;;;;;1999.90;999.90;;;;;;;17.26;58.15;95320.03;4993297;28;20033;-71
2022/08/23 01:02:01;;;;;;;1999.90;999.90;;;;;;;17.15;58.65;95311.66;5001004;28;20030;-71
2022/08/23 01:04:36;;;;;;;1999.90;999.90;;;;;;;16.99;59.05;95299.28;5011309;28;20434;-71
2022/08/23 01:07:10;;;;;;;1999.90;999.90;;;;;;;17.03;59.21;95310.91;4998904;28;20081;-71
2022/08/23 01:09:38;;;;;;;1999.90;999.90;;;;;;;17.05;59.97;95322.91;5012544;28;20104;-71
2022/08/23 01:12:15;;;;;;;1999.90;999.90;;;;;;;17.04;60.06;95324.00;5011549;28;20056;-71
2022/08/23 01:14:46;;;;;;;1999.90;999.90;;;;;;;17.08;59.67;95324.09;4995286;28;20025;-72
2022/08/23 01:17:17;;;;;;;1999.90;999.90;;;;;;;17.03;59.43;95322.44;5011257;28;20763;-71
2022/08/23 01:19:50;;;;;;;1999.90;999.90;;;;;;;16.94;59.33;95307.56;4999196;28;20757;-71
2022/08/23 01:22:18;;;;;;;1999.90;999.90;;;;;;;17.07;59.37;95333.28;5008456;28;20054;-71
2022/08/23 01:24:45;;;;;;;1999.90;999.90;;;;;;;17.07;59.46;95328.69;4991053;28;20030;-72
2022/08/23 01:27:12;;;;;;;1999.90;999.90;;;;;;;17.02;59.18;95330.84;4993295;28;20356;-72
2022/08/23 01:29:39;;;;;;;1999.90;999.90;;;;;;;16.87;59.57;95314.31;4994773;28;20446;-70
2022/08/23 01:32:06;;;;;;;1999.90;999.90;;;;;;;16.78;59.74;95318.25;4993076;28;20414;-70
2022/08/23 01:34:31;;;;;;;1999.90;999.90;;;;;;;16.71;59.78;95312.63;4994819;28;20030;-70
2022/08/23 01:36:57;;;;;;;1999.90;999.90;;;;;;;16.79;59.62;95333.25;5010741;28;20032;-72
2022/08/23 01:39:23;;;;;;;1999.90;999.90;;;;;;;16.81;59.88;95337.16;4993299;28;20036;-71
2022/08/23 01:41:50;;;;;;;1999.90;999.90;;;;;;;16.79;60.11;95350.16;4992913;28;20475;-71
2022/08/23 01:44:15;;;;;;;1999.90;999.90;;;;;;;16.05;62.05;95314.44;5011898;28;20022;-70
2022/08/23 01:46:45;;;;;;;1999.90;999.90;;;;;;;15.85;63.52;95336.75;5008629;28;20041;-71
2022/08/23 01:49:11;;;;;;;1999.90;999.90;;;;;;;16.16;62.02;95322.84;5011047;28;20497;-72
2022/08/23 01:51:37;;;;;;;1999.90;999.90;;;;;;;15.96;63.60;95351.31;5012021;28;20341;-72
2022/08/23 01:54:02;;;;;;;1999.90;999.90;;;;;;;16.16;62.90;95352.34;4999011;28;20112;-71
2022/08/23 01:56:30;;;;;;;1999.90;999.90;;;;;;;16.10;62.57;95345.63;4994560;28;20025;-70
2022/08/23 01:58:55;;;;;;;1999.90;999.90;;;;;;;16.08;62.50;95337.94;4989647;28;20492;-71
2022/08/23 02:01:21;;;;;;;1999.90;999.90;;;;;;;16.19;62.86;95358.97;5000590;28;20182;-71
2022/08/23 02:03:46;;;;;;;1999.90;999.90;;;;;;;15.91;63.67;95348.84;4992080;28;20475;-71
2022/08/23 02:06:11;;;;;;;1999.90;999.90;;;;;;;16.32;62.28;95355.94;4993412;28;20026;-71
2022/08/23 02:11:23;;;;;;;1999.90;999.90;;;;;;;16.49;60.61;95356.88;5010836;28;20064;-71
2022/08/23 02:13:51;;;;;;;1999.90;999.90;;;;;;;16.50;60.96;95367.25;4992845;28;20036;-71
2022/08/23 02:16:30;;;;;;;1999.90;999.90;;;;;;;16.42;60.98;95362.00;5009500;28;20478;-71
2022/08/23 02:18:56;;;;;;;1999.90;999.90;;;;;;;16.39;61.00;95352.72;4992893;28;20040;-71
2022/08/23 02:21:22;;;;;;;1999.90;999.90;;;;;;;16.43;60.88;95344.75;5011486;28;20033;-70
2022/08/23 02:23:48;;;;;;;1999.90;999.90;;;;;;;16.34;61.49;95371.72;4991896;28;20654;-70
2022/08/23 02:26:14;;;;;;;1999.90;999.90;;;;;;;15.65;64.35;95330.34;4993876;28;20519;-71
2022/08/23 02:28:39;;;;;;;1999.90;999.90;;;;;;;16.01;62.77;95345.72;5010451;28;20051;-71
2022/08/23 02:31:06;;;;;;;1999.90;999.90;;;;;;;16.07;62.26;95347.09;4992380;28;20510;-71
2022/08/23 02:33:31;;;;;;;1999.90;999.90;;;;;;;15.78;63.51;95347.25;5009304;28;20045;-71
2022/08/23 02:35:57;;;;;;;1999.90;999.90;;;;;;;16.01;62.72;95355.69;5011325;28;20759;-71
2022/08/23 02:38:22;;;;;;;1999.90;999.90;;;;;;;16.02;62.12;95320.50;4992836;28;20520;-70
2022/08/23 02:40:48;;;;;;;1999.90;999.90;;;;;;;16.31;61.37;95340.19;4993584;28;20030;-72
2022/08/23 02:43:13;;;;;;;1999.90;999.90;;;;;;;16.42;61.18;95362.78;4991965;28;20068;-74
2022/08/23 02:45:39;;;;;;;1999.90;999.90;;;;;;;16.52;60.90;95383.03;5010092;28;20590;-72
2022/08/23 02:48:07;;;;;;;1999.90;999.90;;;;;;;16.40;61.72;95370.38;5009959;28;20542;-71
2022/08/23 02:50:33;;;;;;;1999.90;999.90;;;;;;;16.32;61.48;95352.47;5009940;28;20030;-72
2022/08/23 02:52:59;;;;;;;1999.90;999.90;;;;;;;16.36;61.45;95369.47;5010036;28;20104;-72
2022/08/23 02:55:25;;;;;;;1999.90;999.90;;;;;;;16.44;61.34;95375.88;5010460;28;20109;-71
2022/08/23 02:57:50;;;;;;;1999.90;999.90;;;;;;;16.36;61.43;95370.25;4992979;28;20025;-72
2022/08/23 03:00:18;;;;;;;1999.90;999.90;;;;;;;16.36;61.50;95381.00;5010379;28;20487;-71
2022/08/23 03:02:44;;;;;;;1999.90;999.90;;;;;;;15.93;62.21;95329.75;5009131;28;20088;-71
2022/08/23 03:05:11;;;;;;;1999.90;999.90;;;;;;;15.88;62.21;95335.31;5008362;28;20501;-71
2022/08/23 03:07:37;;;;;;;1999.90;999.90;;;;;;;16.22;61.61;95379.75;5009384;28;20034;-71
2022/08/23 03:10:05;;;;;;;1999.90;999.90;;;;;;;16.32;61.65;95398.09;5009955;28;20022;-72
2022/08/23 03:12:31;;;;;;;1999.90;999.90;;;;;;;16.20;61.93;95384.69;4991883;28;20487;-71
2022/08/23 03:14:56;;;;;;;1999.90;999.90;;;;;;;16.15;62.13;95374.16;5009719;28;20117;-70
2022/08/23 03:17:21;;;;;;;1999.90;999.90;;;;;;;16.22;61.82;95398.53;5008608;28;20101;-70
2022/08/23 03:19:47;;;;;;;1999.90;999.90;;;;;;;15.99;62.04;95365.97;4992173;28;20033;-71
2022/08/23 03:22:12;;;;;;;1999.90;999.90;;;;;;;16.18;62.18;95408.41;4992555;28;20033;-70
2022/08/23 03:24:38;;;;;;;1999.90;999.90;;;;;;;15.86;62.36;95360.56;5008944;28;20036;-71
2022/08/23 03:27:04;;;;;;;1999.90;999.90;;;;;;;16.10;62.26;95408.13;5010591;28;20026;-71
2022/08/23 03:29:30;;;;;;;1999.90;999.90;;;;;;;16.08;62.50;95407.69;5010020;28;20037;-70
2022/08/23 03:31:56;;;;;;;1999.90;999.90;;;;;;;16.04;62.80;95406.00;4991501;28;20492;-71
2022/08/23 03:34:22;;;;;;;1999.90;999.90;;;;;;;15.82;62.41;95375.00;4999660;28;20026;-71
2022/08/23 03:36:47;;;;;;;1999.90;999.90;;;;;;;16.08;62.41;95414.97;5010268;28;20022;-71
2022/08/23 03:39:12;;;;;;;1999.90;999.90;;;;;;;15.93;62.71;95402.19;5009352;28;20100;-71
2022/08/23 03:41:37;;;;;;;1999.90;999.90;;;;;;;16.04;62.80;95420.22;5009987;28;20026;-71
2022/08/23 03:44:03;;;;;;;1999.90;999.90;;;;;;;16.10;62.70;95423.47;4990892;28;20076;-71
2022/08/23 03:46:29;;;;;;;1999.90;999.90;;;;;;;16.04;62.63;95406.78;5009232;28;20069;-71
2022/08/23 03:48:58;;;;;;;1999.90;999.90;;;;;;;16.05;63.03;95402.19;4990943;28;20382;-71
2022/08/23 03:51:25;;;;;;;1999.90;999.90;;;;;;;16.20;62.67;95419.56;4992621;28;20033;-70
2022/08/23 03:53:50;;;;;;;1999.90;999.90;;;;;;;16.15;62.80;95412.50;4991263;28;20113;-72
2022/08/23 03:56:26;;;;;;;1999.90;999.90;;;;;;;16.19;62.64;95420.69;4991816;28;20113;-71
2022/08/23 03:58:52;;;;;;;1999.90;999.90;;;;;;;16.14;62.23;95415.53;5008732;28;20041;-71
2022/08/23 04:01:18;;;;;;;1999.90;999.90;;;;;;;15.93;62.30;95383.41;4999514;28;20034;-73
2022/08/23 04:03:43;;;;;;;1999.90;999.90;;;;;;;15.91;62.09;95394.44;4997116;28;20026;-72
2022/08/23 04:06:10;;;;;;;1999.90;999.90;;;;;;;15.93;62.30;95404.88;5009815;28;20414;-71
2022/08/23 04:08:36;;;;;;;1999.90;999.90;;;;;;;16.06;62.40;95422.53;5009170;28;20113;-71
2022/08/23 04:11:01;;;;;;;1999.90;999.90;;;;;;;15.73;62.39;95379.66;5009871;28;20161;-71
2022/08/23 04:13:29;;;;;;;1999.90;999.90;;;;;;;16.04;62.39;95436.31;5006923;28;20479;-72
2022/08/23 04:15:55;;;;;;;1999.90;999.90;;;;;;;16.02;62.44;95419.75;4996500;28;20034;-70
2022/08/23 04:18:21;;;;;;;1999.90;999.90;;;;;;;15.90;62.03;95406.28;5008082;28;20097;-71
2022/08/23 04:20:49;;;;;;;1999.90;999.90;;;;;;;16.07;61.64;95435.66;5008277;28;20455;-71
2022/08/23 04:23:15;;;;;;;1999.90;999.90;;;;;;;16.01;61.67;95423.53;5008230;28;20033;-72
2022/08/23 04:25:44;;;;;;;1999.90;999.90;;;;;;;16.01;62.01;95428.13;4991030;28;20034;-72
2022/08/23 04:28:10;;;;;;;1999.90;999.90;;;;;;;15.89;61.96;95423.50;5008660;28;20026;-71
2022/08/23 04:30:35;;;;;;;1999.90;999.90;;;;;;;15.83;61.75;95414.88;5004310;28;20033;-71
2022/08/23 04:33:01;;;;;;;1999.90;999.90;;;;;;;15.84;61.83;95419.13;4998524;28;20040;-72
2022/08/23 04:35:26;;;;;;;1999.90;999.90;;;;;;;15.94;61.66;95428.66;5009210;28;20033;-72
2022/08/23 04:37:52;;;;;;;1999.90;999.90;;;;;;;15.89;61.67;95426.19;5008573;28;20053;-72
2022/08/23 04:43:02;;;;;;;1999.90;999.90;;;;;;;16.15;61.47;95449.31;5008400;28;20044;-70
2022/08/23 04:45:28;;;;;;;1999.90;999.90;;;;;;;16.06;61.15;95434.06;5007469;28;20026;-70
2022/08/23 04:47:53;;;;;;;1999.90;999.90;;;;;;;16.27;61.02;95446.63;4989843;28;20352;-68
2022/08/23 04:50:20;;;;;;;1999.90;999.90;;;;;;;16.27;60.36;95425.16;5004250;28;20490;-64
2022/08/23 04:52:46;;;;;;;1999.90;999.90;;;;;;;16.47;60.12;95439.63;5006407;28;20498;-64
2022/08/23 04:55:12;;;;;;;1999.90;999.90;;;;;;;16.03;59.87;95364.19;4990103;28;20026;-64
2022/08/23 04:57:37;;;;;;;1999.90;999.90;;;;;;;16.66;59.83;95450.63;5008942;28;20033;-64
2022/08/23 05:00:05;;;;;;;1999.90;999.90;;;;;;;16.24;59.78;95375.63;5007003;28;20022;-64
2022/08/23 05:02:31;;;;;;;1999.90;999.90;;;;;;;16.82;59.43;95456.16;4988232;28;20105;-63
2022/08/23 05:04:56;;;;;;;1999.90;999.90;;;;;;;16.79;59.15;95435.34;5008873;28;20121;-63
2022/08/23 05:07:22;;;;;;;1999.90;999.90;;;;;;;16.99;59.08;95453.22;5008940;28;20503;-65
2022/08/23 05:09:47;;;;;;;1999.90;999.90;;;;;;;17.01;58.65;95459.06;5009570;28;20507;-64
2022/08/23 05:12:12;;;;;;;1999.90;999.90;;;;;;;17.03;58.70;95443.38;5008135;28;20033;-63
2022/08/23 05:14:38;;;;;;;1999.90;999.90;;;;;;;17.14;58.65;95463.28;4993794;28;20069;-65
2022/08/23 05:17:04;;;;;;;1999.90;999.90;;;;;;;17.09;58.77;95458.13;5011063;28;20038;-64
2022/08/23 05:19:29;;;;;;;1999.90;999.90;;;;;;;17.05;58.56;95454.59;5011050;28;20030;-64
2022/08/23 05:21:54;;;;;;;1999.90;999.90;;;;;;;17.17;58.38;95467.22;5013028;28;20025;-63
2022/08/23 05:24:19;;;;;;;1999.90;999.90;;;;;;;17.20;58.29;95466.56;5009015;28;20145;-63
2022/08/23 05:26:45;;;;;;;1999.90;999.90;;;;;;;17.20;58.84;95476.50;4995715;28;20030;-72
2022/08/23 05:29:10;;;;;;;1999.90;999.90;;;;;;;17.31;58.86;95489.16;4995056;28;20033;-66
2022/08/23 05:31:35;;;;;;;1999.90;999.90;;;;;;;17.32;58.42;95481.88;4995181;28;20843;-64
2022/08/23 05:34:01;;;;;;;1999.90;999.90;;;;;;;17.43;58.44;95491.03;4997222;28;20030;-64
2022/08/23 05:36:26;;;;;;;1999.90;999.90;;;;;;;17.46;58.50;95479.63;4995269;28;20022;-64
2022/08/23 05:38:52;;;;;;;1999.90;999.90;;;;;;;17.54;58.31;95496.75;4995273;28;20049;-65
2022/08/23 05:41:18;;;;;;;1999.90;999.90;;;;;;;17.55;58.95;95479.47;5012605;28;20037;-65
2022/08/23 05:43:44;;;;;;;1999.90;999.90;;;;;;;17.71;58.58;95490.31;4993645;28;20487;-65
2022/08/23 05:46:13;;;;;;;1999.90;999.90;;;;;;;17.84;58.48;95494.56;4994973;28;20025;-65
2022/08/23 05:48:42;;;;;;;1999.90;999.90;;;;;;;17.92;58.46;95491.75;4994835;28;20037;-64
2022/08/23 05:51:23;;;;;;;1999.90;999.90;;;;;;;18.05;58.19;95503.25;5012365;28;20064;-66
2022/08/23 05:53:51;;;;;;;1999.90;999.90;;;;;;;18.15;58.03;95499.28;5009697;28;20048;-65
2022/08/23 05:56:27;;;;;;;1999.90;999.90;;;;;;;18.27;58.18;95498.44;4994871;28;20454;-65
2022/08/23 05:58:54;;;;;;;1999.90;999.90;;;;;;;18.32;57.94;95498.19;5012376;28;20030;-64
2022/08/23 06:01:20;;;;;;;1999.90;999.90;;;;;;;18.51;57.85;95506.38;4993503;28;20080;-65
2022/08/23 06:03:46;;;;;;;1999.90;999.90;;;;;;;18.64;57.81;95513.28;5008961;28;20030;-65
2022/08/23 06:06:14;;;;;;;1999.90;999.90;;;;;;;18.72;57.37;95508.88;5012367;28;20026;-65
2022/08/23 06:08:40;;;;;;;1999.90;999.90;;;;;;;18.81;57.42;95503.31;4996942;28;20022;-64
2022/08/23 06:11:14;;;;;;;1999.90;999.90;;;;;;;18.98;57.42;95518.38;5012145;28;20063;-64
2022/08/23 06:13:42;;;;;;;1999.90;999.90;;;;;;;19.12;57.21;95524.88;4993893;28;20031;-64
2022/08/23 06:16:09;;;;;;;1999.90;999.90;;;;;;;19.21;57.24;95513.94;5012132;28;20022;-64
2022/08/23 06:18:34;;;;;;;1999.90;999.90;;;;;;;19.32;56.81;95506.88;4991491;28;20620;-64
2022/08/23 06:21:05;;;;;;;1999.90;999.90;;;;;;;19.51;56.32;95519.63;5011217;28;20026;-64
2022/08/23 06:23:31;;;;;;;1999.90;999.90;;;;;;;19.64;55.63;95520.31;5011483;28;20033;-64
2022/08/23 06:25:57;;;;;;;1999.90;999.90;;;;;;;19.60;55.62;95504.03;5011295;28;20022;-64
2022/08/23 06:28:23;;;;;;;1999.90;999.90;;;;;;;19.86;55.44;95508.84;5010807;28;20030;-64
2022/08/23 06:30:52;;;;;;;1999.90;999.90;;;;;;;19.72;54.89;95481.56;5011499;28;20065;-64
2022/08/23 06:33:17;;;;;;;1999.90;999.90;;;;;;;19.92;54.68;95491.22;5008508;28;20042;-63
2022/08/23 06:35:42;;;;;;;1999.90;999.90;;;;;;;20.04;54.31;95493.00;5011258;28;20077;-64
2022/08/23 06:38:08;;;;;;;1999.90;999.90;;;;;;;20.13;54.00;95490.88;5011340;28;20029;-64
2022/08/23 06:40:34;;;;;;;1999.90;999.90;;;;;;;20.33;52.98;95507.06;4992935;28;20026;-64
2022/08/23 06:42:59;;;;;;;1999.90;999.90;;;;;;;20.47;53.01;95505.44;5010778;28;20387;-63
2022/08/23 06:45:25;;;;;;;1999.90;999.90;;;;;;;20.62;52.90;95513.78;4993678;28;20026;-64
2022/08/23 06:47:51;;;;;;;1999.90;999.90;;;;;;;20.59;52.62;95501.78;5009209;28;20026;-65
2022/08/23 06:50:18;;;;;;;1999.90;999.90;;;;;;;20.70;52.30;95502.75;5011934;28;20540;-64
2022/08/23 06:52:46;;;;;;;1999.90;999.90;;;;;;;20.68;52.20;95494.22;5030510;28;20040;-64
2022/08/23 06:55:12;;;;;;;1999.90;999.90;;;;;;;20.90;51.90;95505.41;5031090;28;20025;-64
2022/08/23 06:57:37;;;;;;;1999.90;999.90;;;;;;;20.87;51.65;95498.00;5010587;28;20053;-64
2022/08/23 07:00:03;;;;;;;1999.90;999.90;;;;;;;20.85;51.61;95513.81;4992935;28;20494;-64
2022/08/23 07:02:28;;;;;;;1999.90;999.90;;;;;;;20.91;51.63;95496.94;5010693;28;20510;-63
2022/08/23 07:04:54;;;;;;;1999.90;999.90;;;;;;;21.33;50.50;95506.09;5024222;28;20741;-65
2022/08/23 07:07:20;;;;;;;1999.90;999.90;;;;;;;21.51;49.98;95510.66;5001960;28;20030;-64
2022/08/23 07:09:45;;;;;;;1999.90;999.90;;;;;;;21.56;50.09;95503.38;5008279;28;20455;-64
2022/08/23 07:12:10;;;;;;;1999.90;999.90;;;;;;;21.58;50.20;95496.41;5010361;28;20038;-63
2022/08/23 07:14:36;;;;;;;1999.90;999.90;;;;;;;21.64;49.88;95505.78;5011072;28;20105;-64
2022/08/23 07:17:02;;;;;;;1999.90;999.90;;;;;;;21.16;50.33;95496.56;4993012;28;20026;-64
2022/08/23 07:19:32;;;;;;;1999.90;999.90;;;;;;;21.27;50.12;95462.31;5009756;28;20024;-65
2022/08/23 07:21:59;;;;;;;1999.90;999.90;;;;;;;21.69;49.88;95507.41;4992953;28;20033;-65
2022/08/23 07:24:26;;;;;;;1999.90;999.90;;;;;;;21.93;49.77;95523.19;4992569;28;20030;-64
2022/08/23 07:26:51;;;;;;;1999.90;999.90;;;;;;;22.03;49.06;95521.78;5010541;28;20419;-64
2022/08/23 07:29:17;;;;;;;1999.90;999.90;;;;;;;22.08;48.37;95523.38;4991928;28;20057;-64
2022/08/23 07:31:47;;;;;;;1999.90;999.90;;;;;;;22.15;48.39;95513.44;4991615;28;20026;-64
2022/08/23 07:34:13;;;;;;;1999.90;999.90;;;;;;;22.12;48.21;95508.00;4992218;28;20466;-66
2022/08/23 07:36:41;;;;;;;1999.90;999.90;;;;;;;22.27;47.26;95520.56;5009939;28;20033;-65
2022/08/23 07:39:08;;;;;;;1999.90;999.90;;;;;;;22.41;47.42;95520.69;5009700;28;20026;-65
2022/08/23 07:41:37;;;;;;;1999.90;999.90;;;;;;;22.43;46.90;95512.22;5007771;28;20049;-66
2022/08/23 07:44:04;;;;;;;1999.90;999.90;;;;;;;21.92;46.93;95499.97;5009792;28;20738;-66
2022/08/23 07:46:31;;;;;;;1999.90;999.90;;;;;;;22.00;46.71;95517.09;4992467;28;20049;-65
2022/08/23 07:48:58;;;;;;;1999.90;999.90;;;;;;;22.18;46.53;95517.34;4990885;28;20214;-65
2022/08/23 07:51:25;;;;;;;1999.90;999.90;;;;;;;21.89;46.73;95537.84;5009860;28;20030;-65
2022/08/23 07:53:50;;;;;;;1999.90;999.90;;;;;;;21.80;46.92;95522.66;4989564;28;20087;-65
2022/08/23 07:56:18;;;;;;;1999.90;999.90;;;;;;;21.13;48.56;95546.72;5008639;28;20025;-65
2022/08/23 07:58:44;;;;;;;1999.90;999.90;;;;;;;22.03;46.51;95541.53;5009880;28;20022;-66
2022/08/23 08:01:20;;;;;;;1999.90;999.90;;;;;;;21.05;48.54;95550.47;4992061;28;20075;-66
2022/08/23 08:03:48;;;;;;;1999.90;999.90;;;;;;;21.68;47.38;95530.22;5008004;28;20053;-67
2022/08/23 08:06:20;;;;;;;1999.90;999.90;;;;;;;22.42;46.38;95545.88;4991909;28;20449;-65
2022/08/23 08:08:47;;;;;;;1999.90;999.90;;;;;;;22.39;46.05;95522.22;5009709;28;20030;-66
2022/08/23 08:11:15;;;;;;;1999.90;999.90;;;;;;;21.91;46.23;95549.09;5009585;28;20025;-66
2022/08/23 08:13:42;;;;;;;1999.90;999.90;;;;;;;21.90;45.50;95551.00;4990972;28;20026;-66
2022/08/23 08:16:09;;;;;;;1999.90;999.90;;;;;;;22.11;45.90;95547.84;5009291;28;20052;-66
2022/08/23 08:18:36;;;;;;;1999.90;999.90;;;;;;;22.75;43.63;95547.78;4992003;28;20419;-66
2022/08/23 08:21:03;;;;;;;1999.90;999.90;;;;;;;22.83;43.27;95546.72;5007466;28;20025;-66
2022/08/23 08:23:29;;;;;;;1999.90;999.90;;;;;;;23.19;43.44;95542.44;4991408;28;20026;-66
2022/08/23 08:26:04;;;;;;;1999.90;999.90;;;;;;;23.01;43.05;95555.03;4987618;28;20026;-65
2022/08/23 08:28:31;;;;;;;1999.90;999.90;;;;;;;23.25;42.46;95529.28;5001497;28;20042;-66
2022/08/23 08:31:01;;;;;;;1999.90;999.90;;;;;;;23.67;42.07;95561.41;4989122;28;20030;-66
2022/08/23 08:33:27;;;;;;;1999.90;999.90;;;;;;;23.72;41.48;95552.13;5008046;28;20118;-66
2022/08/23 08:35:53;;;;;;;1999.90;999.90;;;;;;;23.76;40.71;95548.28;4991146;28;20030;-66
2022/08/23 08:38:18;;;;;;;1999.90;999.90;;;;;;;23.43;40.13;95535.63;5002931;28;20080;-67
2022/08/23 08:40:46;;;;;;;1999.90;999.90;;;;;;;23.16;39.58;95535.03;5008413;28;20479;-65
2022/08/23 08:43:41;;;;;;;1999.90;999.90;;;;;;;23.32;40.83;95556.47;5008510;28;20025;-65
2022/08/23 08:46:12;;;;;;;1999.90;999.90;;;;;;;22.73;41.27;95547.41;5009374;28;20500;-64
2022/08/23 08:48:44;;;;;;;1999.90;999.90;;;;;;;22.66;41.29;95555.44;5009964;28;20037;-65
2022/08/23 08:51:35;;;;;;;1999.90;999.90;;;;;;;22.98;41.18;95532.16;5009730;28;20096;-66
2022/08/23 08:54:07;;;;;;;1999.90;999.90;;;;;;;23.68;39.64;95543.19;4995389;28;20041;-66
2022/08/23 08:56:36;;;;;;;1999.90;999.90;;;;;;;23.80;38.97;95545.56;5013144;28;20029;-66
2022/08/23 08:59:10;;;;;;;1999.90;999.90;;;;;;;23.65;38.97;95560.22;5008439;28;20026;-71
2022/08/23 09:01:37;;;;;;;1999.90;999.90;;;;;;;23.35;39.62;95561.94;4987248;28;20046;-70
2022/08/23 09:04:04;;;;;;;1999.90;999.90;;;;;;;23.13;40.17;95567.53;5007846;28;20097;-71
2022/08/23 09:06:42;;;;;;;1999.90;999.90;;;;;;;23.02;40.66;95540.31;5007251;28;20194;-70
2022/08/23 09:09:29;;;;;;;1999.90;999.90;;;;;;;24.16;37.85;95556.63;4991023;28;20026;-70
2022/08/23 09:12:04;;;;;;;1999.90;999.90;;;;;;;23.88;37.48;95554.56;4992860;28;20025;-70
2022/08/23 09:14:53;;;;;;;1999.90;999.90;;;;;;;23.68;39.41;95567.63;4991082;28;20149;-69
2022/08/23 09:17:21;;;;;;;1999.90;999.90;;;;;;;23.80;38.03;95565.41;5002006;28;20036;-69
2022/08/23 09:19:51;;;;;;;1999.90;999.90;;;;;;;24.43;36.69;95559.91;5010658;28;20490;-69
2022/08/23 09:22:25;;;;;;;1999.90;999.90;;;;;;;24.42;37.59;95564.56;4994490;28;20034;-69
2022/08/23 09:24:50;;;;;;;1999.90;999.90;;;;;;;23.97;36.71;95566.66;5011311;28;20034;-68
2022/08/23 09:27:16;;;;;;;1999.90;999.90;;;;;;;23.76;36.46;95551.00;5012033;28;20021;-68
2022/08/23 09:29:54;;;;;;;1999.90;999.90;;;;;;;24.12;36.04;95543.84;5012205;28;20040;-68
2022/08/23 09:32:36;;;;;;;1999.90;999.90;;;;;;;24.66;34.73;95560.38;5011857;28;20026;-68
2022/08/23 09:35:19;;;;;;;1999.90;999.90;;;;;;;24.42;35.21;95564.56;5011327;28;20029;-69
2022/08/23 09:37:46;;;;;;;1999.90;999.90;;;;;;;23.59;37.06;95546.19;5011964;28;20029;-68
2022/08/23 09:40:24;;;;;;;1999.90;999.90;;;;;;;24.21;36.02;95548.13;5012110;28;20037;-68
2022/08/23 09:43:13;;;;;;;1999.90;999.90;;;;;;;24.06;36.56;95550.03;5008521;28;20025;-68
2022/08/23 09:45:49;;;;;;;1999.90;999.90;;;;;;;24.06;36.23;95550.03;4994543;28;20530;-68
2022/08/23 09:48:32;;;;;;;1999.90;999.90;;;;;;;23.86;37.78;95563.88;5012036;28;20505;-68
2022/08/23 09:51:06;;;;;;;1999.90;999.90;;;;;;;24.22;36.44;95558.63;5010963;28;20026;-68
2022/08/23 09:53:32;;;;;;;1999.90;999.90;;;;;;;24.26;36.63;95553.19;5011394;28;20022;-68
2022/08/23 09:56:10;;;;;;;1999.90;999.90;;;;;;;24.38;36.45;95540.09;5012031;28;20037;-67
2022/08/23 09:58:39;;;;;;;1999.90;999.90;;;;;;;24.24;36.46;95561.75;5012079;28;20045;-68
2022/08/23 10:01:07;;;;;;;1999.90;999.90;;;;;;;24.78;35.39;95553.81;5009755;28;20120;-68
2022/08/23 10:03:33;;;;;;;1999.90;999.90;;;;;;;25.04;34.82;95531.69;5010261;28;20026;-68
2022/08/23 10:05:59;;;;;;;1999.90;999.90;;;;;;;25.31;34.84;95526.66;5012001;28;20026;-68
2022/08/23 10:08:34;;;;;;;1999.90;999.90;;;;;;;25.58;34.10;95545.31;5011817;28;20018;-68
2022/08/23 10:11:12;;;;;;;1999.90;999.90;;;;;;;24.76;34.76;95542.50;5011460;28;20554;-67
2022/08/23 10:13:40;;;;;;;1999.90;999.90;;;;;;;24.62;35.29;95535.91;5010243;28;20101;-67
2022/08/23 10:16:21;;;;;;;1999.90;999.90;;;;;;;24.62;34.61;95546.00;4992376;28;20493;-68
2022/08/23 10:19:07;;;;;;;1999.90;999.90;;;;;;;24.69;34.99;95543.28;4993731;28;20116;-68
2022/08/23 10:21:42;;;;;;;1999.90;999.90;;;;;;;25.05;34.17;95537.91;5011208;28;20655;-68
2022/08/23 10:24:45;;;;;;;1999.90;999.90;;;;;;;24.25;34.94;95546.97;5011152;28;20097;-68
2022/08/23 10:30:20;;;;;;;1999.90;999.90;;;;;;;24.64;33.26;95541.72;5010382;28;20064;-68
2022/08/23 10:32:54;;;;;;;1999.90;999.90;;;;;;;24.59;32.62;95519.56;4992506;28;20379;-68
2022/08/23 10:35:35;;;;;;;1999.90;999.90;;;;;;;24.03;32.31;95551.53;5011353;28;20093;-71
2022/08/23 10:38:21;;;;;;;1999.90;999.90;;;;;;;24.03;33.53;95537.19;5009887;28;20026;-68
2022/08/23 10:41:10;;;;;;;1999.90;999.90;;;;;;;24.46;33.53;95542.81;4993214;28;20030;-69
2022/08/23 10:44:10;;;;;;;1999.90;999.90;;;;;;;24.44;33.87;95521.47;4992880;28;20112;-70
2022/08/23 10:46:43;;;;;;;1999.90;999.90;;;;;;;24.77;32.77;95506.78;4993252;28;20021;-70
2022/08/23 10:49:11;;;;;;;1999.90;999.90;;;;;;;25.05;32.34;95505.25;5008799;28;20629;-70
2022/08/23 10:51:40;;;;;;;1999.90;999.90;;;;;;;24.61;32.97;95528.09;5010690;28;20415;-70
2022/08/23 10:54:12;;;;;;;1999.90;999.90;;;;;;;24.18;32.69;95465.41;4993302;28;20022;-71
2022/08/23 10:56:38;;;;;;;1999.90;999.90;;;;;;;25.27;31.61;95525.09;4993042;28;20029;-71
2022/08/23 10:59:19;;;;;;;1999.90;999.90;;;;;;;24.81;30.12;95517.66;5009243;28;20030;-69
2022/08/23 11:02:00;;;;;;;1999.90;999.90;;;;;;;24.77;31.07;95531.25;5010613;28;20022;-70
2022/08/23 11:04:34;;;;;;;1999.90;999.90;;;;;;;24.78;31.20;95532.03;5005593;28;20029;-70
2022/08/23 11:07:13;;;;;;;1999.90;999.90;;;;;;;25.09;31.38;95541.44;5008866;28;20030;-70
2022/08/23 11:09:56;;;;;;;1999.90;999.90;;;;;;;25.27;30.47;95534.03;5010091;28;20045;-71
2022/08/23 11:12:33;;;;;;;1999.90;999.90;;;;;;;24.90;29.80;95496.28;4992020;28;20387;-71
2022/08/23 11:15:03;;;;;;;1999.90;999.90;;;;;;;25.10;29.36;95532.09;5009342;28;20117;-70
2022/08/23 11:17:54;;;;;;;1999.90;999.90;;;;;;;25.30;29.47;95522.38;5008635;28;20026;-71